createdAt,value
2019-04-11T00:00:35.664Z,5.78
2019-04-11T00:01:40.898Z,5.66
2019-04-11T00:02:36.602Z,5.59
2019-04-11T00:03:35.645Z,5.62
2019-04-11T00:04:35.588Z,5.58
2019-04-11T00:05:35.572Z,5.56
2019-04-11T00:06:35.896Z,5.67
2019-04-11T00:07:36.344Z,5.66
2019-04-11T00:08:37.041Z,5.73
2019-04-11T00:09:35.586Z,5.75
2019-04-11T00:10:35.561Z,5.69
2019-04-11T00:11:35.815Z,5.75
2019-04-11T00:12:36.586Z,5.83
2019-04-11T00:13:36.479Z,5.73
2019-04-11T00:14:35.876Z,5.66
2019-04-11T00:15:35.471Z,5.60
2019-04-11T00:16:35.459Z,5.62
2019-04-11T00:17:36.282Z,5.59
2019-04-11T00:18:35.553Z,5.66
2019-04-11T00:19:35.809Z,5.75
2019-04-11T00:20:36.066Z,5.73
2019-04-11T00:21:35.422Z,5.70
2019-04-11T00:22:35.411Z,5.65
2019-04-11T00:23:36.480Z,5.62
2019-04-11T00:24:35.392Z,5.59
2019-04-11T00:25:35.772Z,5.58
2019-04-11T00:26:36.189Z,5.47
2019-04-11T00:27:35.349Z,5.37
2019-04-11T00:28:35.334Z,5.35
2019-04-11T00:29:36.489Z,5.30
2019-04-11T00:30:36.466Z,5.32
2019-04-11T00:31:35.300Z,5.30
2019-04-11T00:32:35.896Z,5.29
2019-04-11T00:33:35.277Z,5.33
2019-04-11T00:34:35.288Z,5.19
2019-04-11T00:35:35.546Z,5.23
2019-04-11T00:36:35.249Z,5.33
2019-04-11T00:37:35.255Z,5.33
2019-04-11T00:38:36.159Z,5.32
2019-04-11T00:39:35.439Z,5.41
2019-04-11T00:40:35.483Z,5.32
2019-04-11T00:41:35.191Z,5.22
2019-04-11T00:42:35.182Z,5.22
2019-04-11T00:43:39.006Z,5.05
2019-04-11T00:44:36.162Z,5.01
2019-04-11T00:45:35.925Z,5.04
2019-04-11T00:46:36.179Z,5.01
2019-04-11T00:47:35.313Z,4.99
2019-04-11T00:48:35.603Z,5.01
2019-04-11T00:49:35.106Z,4.99
2019-04-11T00:50:35.111Z,4.93
2019-04-11T00:51:36.079Z,5.06
2019-04-11T00:52:35.078Z,4.97
2019-04-11T00:53:36.089Z,4.91
2019-04-11T00:54:35.300Z,4.90
2019-04-11T00:55:35.660Z,4.93
2019-04-11T00:56:35.029Z,4.87
2019-04-11T00:57:35.023Z,4.94
2019-04-11T00:58:35.999Z,4.99
2019-04-11T00:59:35.212Z,4.96
2019-04-11T01:00:36.493Z,4.87
2019-04-11T01:01:35.698Z,4.90
2019-04-11T01:02:35.796Z,4.90
2019-04-11T01:03:35.925Z,4.91
2019-04-11T01:04:34.987Z,4.88
2019-04-11T01:05:34.934Z,4.88
2019-04-11T01:06:34.915Z,4.91
2019-04-11T01:07:35.343Z,4.88
2019-04-11T01:08:35.700Z,4.90
2019-04-11T01:09:34.890Z,4.93
2019-04-11T01:10:34.879Z,4.94
2019-04-11T01:11:34.868Z,4.97
2019-04-11T01:12:34.853Z,4.91
2019-04-11T01:13:45.595Z,4.86
2019-04-11T01:14:37.212Z,4.90
2019-04-11T01:15:34.829Z,4.90
2019-04-11T01:16:34.931Z,4.84
2019-04-11T01:17:34.807Z,4.83
2019-04-11T01:18:34.799Z,4.84
2019-04-11T01:19:35.142Z,4.74
2019-04-11T01:20:35.525Z,4.77
2019-04-11T01:21:34.907Z,4.72
2019-04-11T01:22:34.744Z,4.84
2019-04-11T01:23:35.357Z,4.80
2019-04-11T01:24:35.609Z,4.75
2019-04-11T01:25:34.813Z,4.69
2019-04-11T01:26:35.066Z,4.71
2019-04-11T01:27:34.698Z,4.68
2019-04-11T01:28:34.678Z,4.75
2019-04-11T01:29:35.643Z,4.80
2019-04-11T01:30:34.667Z,4.83
2019-04-11T01:31:35.787Z,4.79
2019-04-11T01:32:34.738Z,4.74
2019-04-11T01:33:35.824Z,4.74
2019-04-11T01:34:34.983Z,4.72
2019-04-11T01:35:34.603Z,4.67
2019-04-11T01:36:35.345Z,4.71
2019-04-11T01:37:35.586Z,4.74
2019-04-11T01:38:34.719Z,4.68
2019-04-11T01:39:35.090Z,4.69
2019-04-11T01:40:34.556Z,4.72
2019-04-11T01:41:34.546Z,4.72
2019-04-11T01:42:35.574Z,4.62
2019-04-11T01:43:35.559Z,4.68
2019-04-11T01:44:34.712Z,4.62
2019-04-11T01:45:35.744Z,4.54
2019-04-11T01:46:34.485Z,4.53
2019-04-11T01:47:35.821Z,4.50
2019-04-11T01:48:35.392Z,4.44
2019-04-11T01:49:34.480Z,4.36
2019-04-11T01:50:34.907Z,4.36
2019-04-11T01:51:34.438Z,4.38
2019-04-11T01:52:34.426Z,4.47
2019-04-11T01:53:35.250Z,4.47
2019-04-11T01:54:35.451Z,4.39
2019-04-11T01:55:34.810Z,4.56
2019-04-11T01:56:34.391Z,4.38
2019-04-11T01:57:34.374Z,4.49
2019-04-11T01:58:35.082Z,4.53
2019-04-11T01:59:35.349Z,4.56
2019-04-11T02:00:34.430Z,4.62
2019-04-11T02:01:34.323Z,4.51
2019-04-11T02:02:34.750Z,4.54
2019-04-11T02:03:35.042Z,4.59
2019-04-11T02:04:34.306Z,4.51
2019-04-11T02:05:35.009Z,4.51
2019-04-11T02:06:34.283Z,4.50
2019-04-11T02:07:34.382Z,4.46
2019-04-11T02:08:35.473Z,4.59
2019-04-11T02:09:34.236Z,4.59
2019-04-11T02:10:34.995Z,4.51
2019-04-11T02:11:34.229Z,4.56
2019-04-11T02:12:35.211Z,4.50
2019-04-11T02:13:34.237Z,4.49
2019-04-11T02:14:35.386Z,4.56
2019-04-11T02:15:34.553Z,4.46
2019-04-11T02:16:34.856Z,4.50
2019-04-11T02:17:34.927Z,4.44
2019-04-11T02:18:35.164Z,4.42
2019-04-11T02:19:34.440Z,4.53
2019-04-11T02:20:34.121Z,4.49
2019-04-11T02:21:34.121Z,4.46
2019-04-11T02:22:34.763Z,4.49
2019-04-11T02:23:35.054Z,4.53
2019-04-11T02:24:34.175Z,4.47
2019-04-11T02:25:34.063Z,4.38
2019-04-11T02:26:34.056Z,4.34
2019-04-11T02:27:34.810Z,4.32
2019-04-11T02:28:34.939Z,4.34
2019-04-11T02:29:35.358Z,4.35
2019-04-11T02:30:36.143Z,4.38
2019-04-11T02:31:34.957Z,4.31
2019-04-11T02:32:34.938Z,4.20
2019-04-11T02:33:34.853Z,4.26
2019-04-11T02:34:35.214Z,4.17
2019-04-11T02:35:35.368Z,4.20
2019-04-11T02:36:35.449Z,4.21
2019-04-11T02:37:34.608Z,4.21
2019-04-11T02:38:34.761Z,4.18
2019-04-11T02:39:35.644Z,4.18
2019-04-11T02:40:34.063Z,4.20
2019-04-11T02:41:35.740Z,4.20
2019-04-11T02:42:35.104Z,4.13
2019-04-11T02:43:34.927Z,4.08
2019-04-11T02:44:51.019Z,4.08
2019-04-11T02:45:45.381Z,4.13
2019-04-11T02:46:43.628Z,4.08
2019-04-11T02:47:37.254Z,4.14
2019-04-11T02:48:35.464Z,4.08
2019-04-11T02:49:35.230Z,4.07
2019-04-11T02:50:34.452Z,4.10
2019-04-11T02:51:34.527Z,4.10
2019-04-11T02:52:35.406Z,4.14
2019-04-11T02:53:34.376Z,4.02
2019-04-11T02:54:34.235Z,4.06
2019-04-11T02:55:33.753Z,4.10
2019-04-11T02:56:35.716Z,4.02
2019-04-11T02:57:34.353Z,4.00
2019-04-11T02:58:34.629Z,4.11
2019-04-11T02:59:34.501Z,4.00
2019-04-11T03:00:37.208Z,4.07
2019-04-11T03:01:34.717Z,3.95
2019-04-11T03:02:34.730Z,3.98
2019-04-11T03:03:34.149Z,3.99
2019-04-11T03:04:34.736Z,4.00
2019-04-11T03:05:35.165Z,4.06
2019-04-11T03:06:35.254Z,4.10
2019-04-11T03:07:34.167Z,4.14
2019-04-11T03:08:35.909Z,4.07
2019-04-11T03:09:35.122Z,4.07
2019-04-11T03:10:35.124Z,4.06
2019-04-11T03:11:34.623Z,4.00
2019-04-11T03:12:34.375Z,4.00
2019-04-11T03:13:35.367Z,4.02
2019-04-11T03:14:53.835Z,3.96
2019-04-11T03:15:48.637Z,3.96
2019-04-11T03:16:46.740Z,4.04
2019-04-11T03:17:40.554Z,4.04
2019-04-11T03:18:53.506Z,3.96
2019-04-11T03:19:47.691Z,3.99
2019-04-11T03:20:43.590Z,3.88
2019-04-11T03:21:39.165Z,3.84
2019-04-11T03:22:34.951Z,3.88
2019-04-11T03:23:35.389Z,3.98
2019-04-11T03:24:35.789Z,3.80
2019-04-11T03:25:33.422Z,3.78
2019-04-11T03:26:33.724Z,3.75
2019-04-11T03:27:34.884Z,3.80
2019-04-11T03:28:35.647Z,3.77
2019-04-11T03:29:35.606Z,3.77
2019-04-11T03:30:48.861Z,3.95
2019-04-11T03:32:13.382Z,3.80
2019-04-11T03:33:25.247Z,3.81
2019-04-11T03:37:50.110Z,3.71
2019-04-11T03:38:51.439Z,3.68
2019-04-11T03:39:43.897Z,3.63
2019-04-11T03:40:43.155Z,3.63
2019-04-11T03:41:42.832Z,3.59
2019-04-11T03:42:41.620Z,3.62
2019-04-11T03:43:36.520Z,3.49
2019-04-11T03:44:31.427Z,3.54
2019-04-11T03:45:44.137Z,3.50
2019-04-11T03:46:38.112Z,3.52
2019-04-11T03:47:38.952Z,3.46
2019-04-11T03:48:38.471Z,3.39
2019-04-11T03:49:31.700Z,3.49
2019-04-11T03:50:28.053Z,3.52
2019-04-11T03:51:25.762Z,3.41
2019-04-11T03:52:23.800Z,3.39
2019-04-11T03:53:26.956Z,3.28
2019-04-11T03:54:25.236Z,3.45
2019-04-11T03:55:24.061Z,3.35
2019-04-11T03:56:24.357Z,3.31
2019-04-11T03:57:23.718Z,3.28
2019-04-11T03:58:24.249Z,3.28
2019-04-11T03:59:23.863Z,3.26
2019-04-11T04:00:24.348Z,3.23
2019-04-11T04:01:25.223Z,3.25
2019-04-11T04:02:24.695Z,3.16
2019-04-11T04:03:24.592Z,3.07
2019-04-11T04:04:23.910Z,3.10
2019-04-11T04:05:23.894Z,3.10
2019-04-11T04:06:23.860Z,3.10
2019-04-11T04:07:23.501Z,3.05
2019-04-11T04:08:24.799Z,3.02
2019-04-11T04:09:24.071Z,3.15
2019-04-11T04:10:23.665Z,3.25
2019-04-11T04:11:26.693Z,3.08
2019-04-11T04:12:23.567Z,3.16
2019-04-11T04:13:24.838Z,3.12
2019-04-11T04:14:24.297Z,3.13
2019-04-11T04:15:39.243Z,3.16
2019-04-11T04:16:29.613Z,3.22
2019-04-11T04:17:25.440Z,3.15
2019-04-11T04:18:23.903Z,3.20
2019-04-11T04:19:24.867Z,3.22
2019-04-11T04:20:24.563Z,3.17
2019-04-11T04:21:24.657Z,3.08
2019-04-11T04:22:24.799Z,3.23
2019-04-11T04:23:23.155Z,3.16
2019-04-11T04:24:23.153Z,3.16
2019-04-11T04:25:24.296Z,3.19
2019-04-11T04:26:23.120Z,3.08
2019-04-11T04:27:25.472Z,3.15
2019-04-11T04:28:23.682Z,3.10
2019-04-11T04:29:25.092Z,3.19
2019-04-11T04:30:24.682Z,3.19
2019-04-11T04:31:24.398Z,3.22
2019-04-11T04:32:24.946Z,3.12
2019-04-11T04:33:23.278Z,3.13
2019-04-11T04:34:23.920Z,3.12
2019-04-11T04:35:24.125Z,3.13
2019-04-11T04:36:24.751Z,3.10
2019-04-11T04:37:24.819Z,2.99
2019-04-11T04:38:23.908Z,3.07
2019-04-11T04:39:24.790Z,2.95
2019-04-11T04:40:35.558Z,3.10
2019-04-11T04:41:33.515Z,3.05
2019-04-11T04:42:31.558Z,3.10
2019-04-11T04:43:25.176Z,3.05
2019-04-11T04:44:24.273Z,3.19
2019-04-11T04:45:23.959Z,3.13
2019-04-11T04:46:36.617Z,3.05
2019-04-11T04:47:33.038Z,3.08
2019-04-11T04:48:26.735Z,3.05
2019-04-11T04:49:23.729Z,2.99
2019-04-11T04:50:24.417Z,3.04
2019-04-11T04:51:24.287Z,2.99
2019-04-11T04:52:22.849Z,3.04
2019-04-11T04:53:25.738Z,2.94
2019-04-11T04:54:24.070Z,2.98
2019-04-11T04:55:23.541Z,2.89
2019-04-11T04:56:27.199Z,2.95
2019-04-11T04:57:24.434Z,2.98
2019-04-11T04:58:24.358Z,2.98
2019-04-11T04:59:23.642Z,2.98
2019-04-11T05:00:23.403Z,2.94
2019-04-11T05:01:23.828Z,2.94
2019-04-11T05:02:24.076Z,3.01
2019-04-11T05:03:24.413Z,2.95
2019-04-11T05:04:23.454Z,2.99
2019-04-11T05:05:24.372Z,2.92
2019-04-11T05:06:24.093Z,3.01
2019-04-11T05:07:23.596Z,2.90
2019-04-11T05:08:22.948Z,2.97
2019-04-11T05:09:23.559Z,3.05
2019-04-11T05:10:24.080Z,2.97
2019-04-11T05:11:23.193Z,3.05
2019-04-11T05:12:22.732Z,3.07
2019-04-11T05:13:23.907Z,3.15
2019-04-11T05:14:23.343Z,3.19
2019-04-11T05:15:24.235Z,3.20
2019-04-11T05:16:22.582Z,3.16
2019-04-11T05:17:23.263Z,3.23
2019-04-11T05:18:23.604Z,3.22
2019-04-11T05:19:23.749Z,3.25
2019-04-11T05:20:23.812Z,3.19
2019-04-11T05:21:23.327Z,3.30
2019-04-11T05:22:22.578Z,3.15
2019-04-11T05:23:23.529Z,3.28
2019-04-11T05:24:22.931Z,3.33
2019-04-11T05:25:22.487Z,3.25
2019-04-11T05:26:23.550Z,3.39
2019-04-11T05:27:22.949Z,3.42
2019-04-11T05:28:23.473Z,3.44
2019-04-11T05:29:22.451Z,3.45
2019-04-11T05:30:23.145Z,3.49
2019-04-11T05:31:22.675Z,3.57
2019-04-11T05:32:22.409Z,3.56
2019-04-11T05:33:23.181Z,3.50
2019-04-11T05:34:23.703Z,3.57
2019-04-11T05:35:22.808Z,3.60
2019-04-11T05:36:22.730Z,3.64
2019-04-11T05:37:22.816Z,3.68
2019-04-11T05:38:23.065Z,3.70
2019-04-11T05:39:23.390Z,3.81
2019-04-11T05:40:22.329Z,3.88
2019-04-11T05:41:23.557Z,3.84
2019-04-11T05:42:25.257Z,3.90
2019-04-11T05:43:26.819Z,3.88
2019-04-11T05:44:23.295Z,3.90
2019-04-11T05:45:24.439Z,3.89
2019-04-11T05:46:31.071Z,3.92
2019-04-11T05:47:23.442Z,3.84
2019-04-11T05:48:25.571Z,3.98
2019-04-11T05:49:23.173Z,4.02
2019-04-11T05:50:22.257Z,3.95
2019-04-11T05:51:23.796Z,4.07
2019-04-11T05:52:22.195Z,4.16
2019-04-11T05:53:22.830Z,4.18
2019-04-11T05:54:22.178Z,4.18
2019-04-11T05:55:22.201Z,4.24
2019-04-11T05:56:22.155Z,4.28
2019-04-11T05:57:24.316Z,4.28
2019-04-11T05:58:24.160Z,4.44
2019-04-11T05:59:23.872Z,4.46
2019-04-11T06:00:22.121Z,4.64
2019-04-11T06:01:22.422Z,4.69
2019-04-11T06:02:22.098Z,4.69
2019-04-11T06:03:22.080Z,4.72
2019-04-11T06:04:24.037Z,4.77
2019-04-11T06:05:24.604Z,4.74
2019-04-11T06:06:23.041Z,4.64
2019-04-11T06:07:23.161Z,4.77
2019-04-11T06:08:26.971Z,4.83
2019-04-11T06:09:23.028Z,4.87
2019-04-11T06:10:22.004Z,4.91
2019-04-11T06:11:24.015Z,4.94
2019-04-11T06:12:21.982Z,4.93
2019-04-11T06:13:22.648Z,4.99
2019-04-11T06:14:22.887Z,5.11
2019-04-11T06:15:22.992Z,5.14
2019-04-11T06:16:23.986Z,5.08
2019-04-11T06:17:23.878Z,5.30
2019-04-11T06:18:27.091Z,5.30
2019-04-11T06:19:22.982Z,5.47
2019-04-11T06:20:22.109Z,5.49
2019-04-11T06:21:22.083Z,5.59
2019-04-11T06:22:21.874Z,5.49
2019-04-11T06:23:21.863Z,5.52
2019-04-11T06:24:21.848Z,5.56
2019-04-11T06:25:23.365Z,5.63
2019-04-11T06:26:22.992Z,5.60
2019-04-11T06:27:22.163Z,5.74
2019-04-11T06:28:22.209Z,5.84
2019-04-11T06:29:26.226Z,5.84
2019-04-11T06:30:22.792Z,5.83
2019-04-11T06:31:22.064Z,5.81
2019-04-11T06:32:21.767Z,5.84
2019-04-11T06:33:22.682Z,5.90
2019-04-11T06:34:24.069Z,5.95
2019-04-11T06:35:22.026Z,5.96
2019-04-11T06:36:21.720Z,6.11
2019-04-11T06:37:21.725Z,6.20
2019-04-11T06:38:22.664Z,6.36
2019-04-11T06:39:21.694Z,6.35
2019-04-11T06:40:22.828Z,6.51
2019-04-11T06:41:22.127Z,6.63
2019-04-11T06:42:24.472Z,6.76
2019-04-11T06:43:21.651Z,6.76
2019-04-11T06:44:21.722Z,6.96
2019-04-11T06:45:21.839Z,7.09
2019-04-11T06:46:21.832Z,7.08
2019-04-11T06:47:22.893Z,7.21
2019-04-11T06:48:29.672Z,7.24
2019-04-11T06:49:22.475Z,7.33
2019-04-11T06:50:22.884Z,7.29
2019-04-11T06:51:22.005Z,7.39
2019-04-11T06:52:21.541Z,7.48
2019-04-11T06:53:21.534Z,7.47
2019-04-11T06:54:21.535Z,7.50
2019-04-11T06:55:22.438Z,7.58
2019-04-11T06:56:21.504Z,7.60
2019-04-11T06:57:21.671Z,7.66
2019-04-11T06:58:21.595Z,7.63
2019-04-11T06:59:21.503Z,7.71
2019-04-11T07:00:21.462Z,7.81
2019-04-11T07:01:22.420Z,7.76
2019-04-11T07:02:24.198Z,7.62
2019-04-11T07:03:25.472Z,7.84
2019-04-11T07:04:21.865Z,7.95
2019-04-11T07:05:22.497Z,7.91
2019-04-11T07:06:21.752Z,7.95
2019-04-11T07:07:21.529Z,8.00
2019-04-11T07:08:22.283Z,8.10
2019-04-11T07:09:22.240Z,8.25
2019-04-11T07:10:22.382Z,8.45
2019-04-11T07:11:21.338Z,8.67
2019-04-11T07:12:22.149Z,8.73
2019-04-11T07:13:21.314Z,8.85
2019-04-11T07:14:22.396Z,8.93
2019-04-11T07:15:21.308Z,8.97
2019-04-11T07:16:21.970Z,9.13
2019-04-11T07:17:21.283Z,9.12
2019-04-11T07:18:22.545Z,9.24
2019-04-11T07:19:21.907Z,9.20
2019-04-11T07:20:21.268Z,9.23
2019-04-11T07:21:21.273Z,9.19
2019-04-11T07:22:21.220Z,8.93
2019-04-11T07:23:22.249Z,8.98
2019-04-11T07:24:22.310Z,8.94
2019-04-11T07:25:22.226Z,9.04
2019-04-11T07:26:21.192Z,9.26
2019-04-11T07:27:21.166Z,9.35
2019-04-11T07:28:21.151Z,9.41
2019-04-11T07:29:21.535Z,9.58
2019-04-11T07:30:23.605Z,9.67
2019-04-11T07:31:21.742Z,9.68
2019-04-11T07:32:22.244Z,9.65
2019-04-11T07:33:21.137Z,9.60
2019-04-11T07:34:21.339Z,9.45
2019-04-11T07:35:21.450Z,9.52
2019-04-11T07:36:21.144Z,9.73
2019-04-11T07:37:21.429Z,9.63
2019-04-11T07:38:21.055Z,9.81
2019-04-11T07:39:22.419Z,9.81
2019-04-11T07:40:21.980Z,9.65
2019-04-11T07:41:21.622Z,9.60
2019-04-11T07:42:21.299Z,9.68
2019-04-11T07:43:20.996Z,9.78
2019-04-11T07:44:21.817Z,9.95
2019-04-11T07:45:21.048Z,10.38
2019-04-11T07:46:21.943Z,10.60
2019-04-11T07:47:23.721Z,10.60
2019-04-11T07:48:21.935Z,10.57
2019-04-11T07:49:21.004Z,10.63
2019-04-11T07:50:21.354Z,10.83
2019-04-11T07:51:20.898Z,10.94
2019-04-11T07:52:20.891Z,10.94
2019-04-11T07:53:21.708Z,10.98
2019-04-11T07:54:20.886Z,10.91
2019-04-11T07:55:21.041Z,10.72
2019-04-11T07:56:20.886Z,10.76
2019-04-11T07:57:20.842Z,10.65
2019-04-11T07:58:21.673Z,10.55
2019-04-11T07:59:21.704Z,10.44
2019-04-11T08:00:35.893Z,10.18
2019-04-11T08:01:21.792Z,10.13
2019-04-11T08:02:23.639Z,10.10
2019-04-11T08:03:21.387Z,10.44
2019-04-11T08:04:21.677Z,10.62
2019-04-11T08:05:21.476Z,10.69
2019-04-11T08:06:20.742Z,10.86
2019-04-11T08:07:20.722Z,10.99
2019-04-11T08:08:21.430Z,11.13
2019-04-11T08:09:20.713Z,10.83
2019-04-11T08:10:20.706Z,10.55
2019-04-11T08:11:20.689Z,11.08
2019-04-11T08:12:21.348Z,11.03
2019-04-11T08:13:20.755Z,11.06
2019-04-11T08:14:20.646Z,11.02
2019-04-11T08:15:21.681Z,11.31
2019-04-11T08:16:20.673Z,10.84
2019-04-11T08:17:32.083Z,10.73
2019-04-11T08:18:21.602Z,10.18
2019-04-11T08:19:21.094Z,10.62
2019-04-11T08:20:21.386Z,11.26
2019-04-11T08:21:21.802Z,11.84
2019-04-11T08:22:20.995Z,11.96
2019-04-11T08:23:21.375Z,12.03
2019-04-11T08:24:20.559Z,12.23
2019-04-11T08:25:20.888Z,12.13
2019-04-11T08:26:20.562Z,12.01
2019-04-11T08:27:20.520Z,12.26
2019-04-11T08:28:20.654Z,12.36
2019-04-11T08:29:20.501Z,12.58
2019-04-11T08:30:20.477Z,12.56
2019-04-11T08:31:21.542Z,12.84
2019-04-11T08:32:20.461Z,12.95
2019-04-11T08:33:20.447Z,13.22
2019-04-11T08:34:21.796Z,13.09
2019-04-11T08:35:20.423Z,13.35
2019-04-11T08:36:20.422Z,13.43
2019-04-11T08:37:21.170Z,13.39
2019-04-11T08:38:20.468Z,12.13
2019-04-11T08:39:20.667Z,11.41
2019-04-11T08:40:20.363Z,10.84
2019-04-11T08:41:20.368Z,10.52
2019-04-11T08:42:21.314Z,10.14
2019-04-11T08:43:21.327Z,10.09
2019-04-11T08:44:20.494Z,9.88
2019-04-11T08:45:21.489Z,9.71
2019-04-11T08:46:28.973Z,9.34
2019-04-11T08:47:40.187Z,9.23
2019-04-11T08:48:21.296Z,9.00
2019-04-11T08:49:29.946Z,9.00
2019-04-11T08:50:28.319Z,9.17
2019-04-11T08:51:29.339Z,9.17
2019-04-11T08:52:21.376Z,9.12
2019-04-11T08:53:20.661Z,9.10
2019-04-11T08:54:20.223Z,9.23
2019-04-11T08:55:21.016Z,10.25
2019-04-11T08:56:21.076Z,10.95
2019-04-11T08:57:20.178Z,11.79
2019-04-11T08:58:20.479Z,11.96
2019-04-11T08:59:20.200Z,11.67
2019-04-11T09:00:20.148Z,11.33
2019-04-11T09:01:20.208Z,11.02
2019-04-11T09:02:20.587Z,10.80
2019-04-11T09:03:20.121Z,11.05
2019-04-11T09:04:20.123Z,11.77
2019-04-11T09:05:20.455Z,11.53
2019-04-11T09:06:20.786Z,11.44
2019-04-11T09:07:21.143Z,11.03
2019-04-11T09:08:20.371Z,10.69
2019-04-11T09:09:20.890Z,10.60
2019-04-11T09:10:20.094Z,10.44
2019-04-11T09:11:20.448Z,10.24
2019-04-11T09:12:20.585Z,10.20
2019-04-11T09:13:20.021Z,10.07
2019-04-11T09:14:20.011Z,9.86
2019-04-11T09:15:21.085Z,9.92
2019-04-11T09:16:19.978Z,9.55
2019-04-11T09:17:21.462Z,9.35
2019-04-11T09:18:19.971Z,9.30
2019-04-11T09:19:20.936Z,9.01
2019-04-11T09:20:21.298Z,8.91
2019-04-11T09:21:20.276Z,8.73
2019-04-11T09:22:20.510Z,8.70
2019-04-11T09:23:19.914Z,8.68
2019-04-11T09:24:19.903Z,8.65
2019-04-11T09:25:21.145Z,8.64
2019-04-11T09:26:20.202Z,8.68
2019-04-11T09:27:20.457Z,8.58
2019-04-11T09:28:19.841Z,8.60
2019-04-11T09:29:19.863Z,8.57
2019-04-11T09:30:20.863Z,8.60
2019-04-11T09:31:19.815Z,8.75
2019-04-11T09:32:20.182Z,8.75
2019-04-11T09:33:20.768Z,8.75
2019-04-11T09:34:19.789Z,8.67
2019-04-11T09:35:19.764Z,8.75
2019-04-11T09:36:19.788Z,8.96
2019-04-11T09:37:20.448Z,9.12
2019-04-11T09:38:19.731Z,9.41
2019-04-11T09:39:19.721Z,10.47
2019-04-11T09:40:19.719Z,10.49
2019-04-11T09:41:20.593Z,10.57
2019-04-11T09:42:21.396Z,10.43
2019-04-11T09:43:19.941Z,10.14
2019-04-11T09:44:20.365Z,10.18
2019-04-11T09:45:19.706Z,10.04
2019-04-11T09:46:19.642Z,9.92
2019-04-11T09:47:19.960Z,9.86
2019-04-11T09:48:21.008Z,9.77
2019-04-11T09:49:20.501Z,9.55
2019-04-11T09:50:20.405Z,9.44
2019-04-11T09:51:19.588Z,9.35
2019-04-11T09:52:20.580Z,9.31
2019-04-11T09:53:20.625Z,9.12
2019-04-11T09:54:19.830Z,9.06
2019-04-11T09:55:19.565Z,9.01
2019-04-11T09:56:20.578Z,9.01
2019-04-11T09:57:20.507Z,8.82
2019-04-11T09:58:19.665Z,8.61
2019-04-11T09:59:20.728Z,8.68
2019-04-11T10:00:20.685Z,8.70
2019-04-11T10:01:20.244Z,8.88
2019-04-11T10:02:19.469Z,8.96
2019-04-11T10:03:19.737Z,9.10
2019-04-11T10:04:19.473Z,9.17
2019-04-11T10:05:20.161Z,9.55
2019-04-11T10:06:19.528Z,9.81
2019-04-11T10:07:19.684Z,10.69
2019-04-11T10:08:19.401Z,11.27
2019-04-11T10:09:19.730Z,10.94
2019-04-11T10:10:19.388Z,10.76
2019-04-11T10:11:19.378Z,10.52
2019-04-11T10:12:20.034Z,10.39
2019-04-11T10:13:20.478Z,10.14
2019-04-11T10:14:19.731Z,10.14
2019-04-11T10:15:19.368Z,10.07
2019-04-11T10:16:19.938Z,10.20
2019-04-11T10:17:21.327Z,10.14
2019-04-11T10:18:25.324Z,10.10
2019-04-11T10:19:20.284Z,10.11
2019-04-11T10:20:20.331Z,10.18
2019-04-11T10:21:19.422Z,10.24
2019-04-11T10:22:19.253Z,10.46
2019-04-11T10:23:19.247Z,11.41
2019-04-11T10:24:20.880Z,11.81
2019-04-11T10:25:19.228Z,11.87
2019-04-11T10:26:20.263Z,12.04
2019-04-11T10:27:20.467Z,11.78
2019-04-11T10:28:19.551Z,11.56
2019-04-11T10:29:19.289Z,11.44
2019-04-11T10:30:19.464Z,11.16
2019-04-11T10:31:20.404Z,11.23
2019-04-11T10:32:19.181Z,11.05
2019-04-11T10:33:20.455Z,11.09
2019-04-11T10:34:19.639Z,11.01
2019-04-11T10:35:20.178Z,10.84
2019-04-11T10:36:19.141Z,10.70
2019-04-11T10:37:20.033Z,10.60
2019-04-11T10:38:20.337Z,10.43
2019-04-11T10:39:19.791Z,10.20
2019-04-11T10:40:21.270Z,10.10
2019-04-11T10:41:19.044Z,10.18
2019-04-11T10:42:20.156Z,10.20
2019-04-11T10:43:20.269Z,10.22
2019-04-11T10:44:19.006Z,10.07
2019-04-11T10:45:19.000Z,9.99
2019-04-11T10:46:19.588Z,9.99
2019-04-11T10:47:19.010Z,9.99
2019-04-11T10:48:19.981Z,9.92
2019-04-11T10:49:19.969Z,9.86
2019-04-11T10:50:19.574Z,9.89
2019-04-11T10:51:18.934Z,9.91
2019-04-11T10:52:26.650Z,9.91
2019-04-11T10:53:27.020Z,9.81
2019-04-11T10:54:27.970Z,9.88
2019-04-11T10:55:19.750Z,9.95
2019-04-11T10:56:19.075Z,9.92
2019-04-11T10:57:20.941Z,10.04
2019-04-11T10:58:18.866Z,9.91
2019-04-11T10:59:19.548Z,9.89
2019-04-11T11:00:19.006Z,9.81
2019-04-11T11:01:19.845Z,9.89
2019-04-11T11:02:18.864Z,9.83
2019-04-11T11:03:18.815Z,9.74
2019-04-11T11:04:19.875Z,9.83
2019-04-11T11:05:19.447Z,9.81
2019-04-11T11:06:19.757Z,9.91
2019-04-11T11:07:18.761Z,9.85
2019-04-11T11:08:19.470Z,9.95
2019-04-11T11:09:19.792Z,9.92
2019-04-11T11:10:19.539Z,9.93
2019-04-11T11:11:19.476Z,9.85
2019-04-11T11:12:19.043Z,9.83
2019-04-11T11:13:18.712Z,9.78
2019-04-11T11:14:18.858Z,9.88
2019-04-11T11:15:19.826Z,9.92
2019-04-11T11:16:18.672Z,9.88
2019-04-11T11:17:43.814Z,9.74
2019-04-11T11:18:54.140Z,9.88
2019-04-11T11:19:40.893Z,9.96
2019-04-11T11:20:26.754Z,10.11
2019-04-11T11:21:19.809Z,10.20
2019-04-11T11:22:18.837Z,10.14
2019-04-11T11:23:18.598Z,10.11
2019-04-11T11:24:19.690Z,10.02
2019-04-11T11:25:19.563Z,10.09
2019-04-11T11:26:22.752Z,10.11
2019-04-11T11:27:18.544Z,10.07
2019-04-11T11:28:18.539Z,10.10
2019-04-11T11:29:19.221Z,9.92
2019-04-11T11:30:18.795Z,9.88
2019-04-11T11:31:18.507Z,9.71
2019-04-11T11:32:18.994Z,9.58
2019-04-11T11:33:18.659Z,9.52
2019-04-11T11:34:20.327Z,9.62
2019-04-11T11:35:22.459Z,9.56
2019-04-11T11:36:19.454Z,9.74
2019-04-11T11:37:18.556Z,9.91
2019-04-11T11:38:19.794Z,10.06
2019-04-11T11:39:19.311Z,10.10
2019-04-11T11:40:18.956Z,10.18
2019-04-11T11:41:18.520Z,10.02
2019-04-11T11:42:18.394Z,9.59
2019-04-11T11:43:19.011Z,9.49
2019-04-11T11:44:19.587Z,9.44
2019-04-11T11:45:19.442Z,9.32
2019-04-11T11:46:19.274Z,9.19
2019-04-11T11:47:19.511Z,9.15
2019-04-11T11:48:20.678Z,9.03
2019-04-11T11:49:32.747Z,9.03
2019-04-11T11:50:21.688Z,9.01
2019-04-11T11:51:22.688Z,9.03
2019-04-11T11:52:19.353Z,9.00
2019-04-11T11:53:18.512Z,8.91
2019-04-11T11:54:18.277Z,8.75
2019-04-11T11:55:19.838Z,8.73
2019-04-11T11:56:18.218Z,8.75
2019-04-11T11:57:18.379Z,8.86
2019-04-11T11:58:19.813Z,8.85
2019-04-11T11:59:18.597Z,8.96
2019-04-11T12:00:18.181Z,8.85
2019-04-11T12:01:18.163Z,8.89
2019-04-11T12:02:19.784Z,8.88
2019-04-11T12:03:19.090Z,8.78
2019-04-11T12:04:19.090Z,8.78
2019-04-11T12:05:18.558Z,8.70
2019-04-11T12:06:22.328Z,8.71
2019-04-11T12:07:18.964Z,8.68
2019-04-11T12:08:18.299Z,8.75
2019-04-11T12:09:18.401Z,8.76
2019-04-11T12:10:18.088Z,8.75
2019-04-11T12:11:18.069Z,8.79
2019-04-11T12:12:18.045Z,8.75
2019-04-11T12:13:19.166Z,8.61
2019-04-11T12:14:18.132Z,8.71
2019-04-11T12:15:20.930Z,8.73
2019-04-11T12:16:21.343Z,8.68
2019-04-11T12:17:18.621Z,8.76
2019-04-11T12:18:18.873Z,8.86
2019-04-11T12:19:20.438Z,8.89
2019-04-11T12:20:18.607Z,9.00
2019-04-11T12:21:21.909Z,9.01
2019-04-11T12:22:20.026Z,9.06
2019-04-11T12:23:17.935Z,9.12
2019-04-11T12:24:17.923Z,9.06
2019-04-11T12:25:17.904Z,9.15
2019-04-11T12:26:18.434Z,9.15
2019-04-11T12:27:18.442Z,9.13
2019-04-11T12:29:27.863Z,9.32
2019-04-11T12:30:29.699Z,9.10
2019-04-11T12:31:31.173Z,9.01
2019-04-11T12:32:26.612Z,9.03
2019-04-11T12:33:27.694Z,9.06
2019-04-11T12:34:26.601Z,9.00
2019-04-11T12:35:27.698Z,8.88
2019-04-11T12:36:26.587Z,8.75
2019-04-11T12:37:27.511Z,8.68
2019-04-11T12:38:26.557Z,8.68
2019-04-11T12:39:28.743Z,8.67
2019-04-11T12:40:26.523Z,8.57
2019-04-11T12:41:26.509Z,8.58
2019-04-11T12:42:26.510Z,8.45
2019-04-11T12:43:26.492Z,8.45
2019-04-11T12:44:26.754Z,8.39
2019-04-11T12:45:26.468Z,8.43
2019-04-11T12:46:30.088Z,8.29
2019-04-11T12:47:26.487Z,8.37
2019-04-11T12:48:26.441Z,8.32
2019-04-11T12:49:26.428Z,8.43
2019-04-11T12:50:26.418Z,8.47
2019-04-11T12:51:26.416Z,8.43
2019-04-11T12:52:26.395Z,8.45
2019-04-11T12:53:26.419Z,8.42
2019-04-11T12:54:26.378Z,8.40
2019-04-11T12:55:26.366Z,8.39
2019-04-11T12:56:26.352Z,8.18
2019-04-11T12:57:26.341Z,8.20
2019-04-11T12:58:26.325Z,8.39
2019-04-11T12:59:26.324Z,8.45
2019-04-11T13:00:26.304Z,8.43
2019-04-11T13:01:26.305Z,8.61
2019-04-11T13:02:26.281Z,8.65
2019-04-11T13:03:26.288Z,8.70
2019-04-11T13:04:26.266Z,8.82
2019-04-11T13:05:26.249Z,8.82
2019-04-11T13:06:35.114Z,8.94
2019-04-11T13:07:27.227Z,8.91
2019-04-11T13:08:26.217Z,8.78
2019-04-11T13:09:26.218Z,8.65
2019-04-11T13:10:26.213Z,8.60
2019-04-11T13:11:26.190Z,8.67
2019-04-11T13:12:26.181Z,8.75
2019-04-11T13:13:26.169Z,8.73
2019-04-11T13:14:26.161Z,8.86
2019-04-11T13:15:26.150Z,8.76
2019-04-11T13:16:26.132Z,8.85
2019-04-11T13:17:26.123Z,8.76
2019-04-11T13:18:26.115Z,8.73